Elwood, New York
Current Conditions -  °F | °C
As of 12:53 PM on Sunday 25 Jan 2015 (Local Time) from KFRG Reporting Station
Clear Clear  
Wind Chill: 34°   Ceiling: Unl
Heat Index: 42°   Visibility: 10mi
Dew Point: 16°   Wind: 17mph
Humidity: 35%   Direction: 300°WNW
Pressure: 29.76"   Gusts: 24mph
Location:  40.85°N, 73.33°W
Report Text: KFRG 251753Z 30015G21KT 10SM CLR 06/M09 A2976 RMK AO2 PK WND 30026/1725 SLP078 T00561089 10061 20011 53009
Loading
Personal Weather Stations






























Interactive Weather Map New forecast layout! Learn more

10-Day Weather Forecast

Advertisements
Track Severe Weather on mobile